sensor_id;sensor_type;location;lat;lon;timestamp;P1;durP1;ratioP1;P2;durP2;ratioP2
64669;SDS011;51080;51.690;5.174;2023-02-25T00:02:53;12.00;;;2.30;;
64669;SDS011;51080;51.690;5.174;2023-02-25T00:08:37;11.60;;;2.40;;
64669;SDS011;51080;51.690;5.174;2023-02-25T00:14:22;15.30;;;3.00;;
64669;SDS011;51080;51.690;5.174;2023-02-25T00:20:07;10.50;;;2.40;;
64669;SDS011;51080;51.690;5.174;2023-02-25T00:25:58;13.60;;;2.70;;
64669;SDS011;51080;51.690;5.174;2023-02-25T00:31:43;15.30;;;3.30;;
64669;SDS011;51080;51.690;5.174;2023-02-25T00:37:28;17.20;;;2.50;;
64669;SDS011;51080;51.690;5.174;2023-02-25T00:43:14;11.20;;;2.50;;
64669;SDS011;51080;51.690;5.174;2023-02-25T00:48:59;14.80;;;3.00;;
64669;SDS011;51080;51.690;5.174;2023-02-25T00:54:45;17.60;;;2.70;;
64669;SDS011;51080;51.690;5.174;2023-02-25T01:00:29;15.30;;;2.60;;
64669;SDS011;51080;51.690;5.174;2023-02-25T01:06:13;17.90;;;3.10;;
64669;SDS011;51080;51.690;5.174;2023-02-25T01:11:59;17.40;;;3.10;;
64669;SDS011;51080;51.690;5.174;2023-02-25T01:17:44;21.70;;;4.00;;
64669;SDS011;51080;51.690;5.174;2023-02-25T01:29:13;15.60;;;3.20;;
64669;SDS011;51080;51.690;5.174;2023-02-25T01:35:01;15.20;;;3.40;;
64669;SDS011;51080;51.690;5.174;2023-02-25T01:40:46;18.00;;;3.40;;
64669;SDS011;51080;51.690;5.174;2023-02-25T01:46:31;17.80;;;3.30;;
64669;SDS011;51080;51.690;5.174;2023-02-25T01:52:17;17.40;;;3.40;;
64669;SDS011;51080;51.690;5.174;2023-02-25T01:58:34;16.50;;;3.20;;
64669;SDS011;51080;51.690;5.174;2023-02-25T02:04:19;19.90;;;3.10;;
64669;SDS011;51080;51.690;5.174;2023-02-25T02:10:05;21.20;;;3.60;;
64669;SDS011;51080;51.690;5.174;2023-02-25T02:16:00;16.20;;;2.70;;
64669;SDS011;51080;51.690;5.174;2023-02-25T02:21:55;16.20;;;3.20;;
64669;SDS011;51080;51.690;5.174;2023-02-25T02:45:58;19.10;;;2.90;;
64669;SDS011;51080;51.690;5.174;2023-02-25T02:52:03;16.40;;;3.60;;
64669;SDS011;51080;51.690;5.174;2023-02-25T02:57:50;21.50;;;3.60;;
64669;SDS011;51080;51.690;5.174;2023-02-25T03:03:43;16.00;;;2.60;;
64669;SDS011;51080;51.690;5.174;2023-02-25T03:09:31;19.80;;;2.40;;
64669;SDS011;51080;51.690;5.174;2023-02-25T03:15:21;19.20;;;3.10;;
64669;SDS011;51080;51.690;5.174;2023-02-25T03:21:10;19.10;;;3.00;;
64669;SDS011;51080;51.690;5.174;2023-02-25T03:27:29;15.00;;;2.30;;
64669;SDS011;51080;51.690;5.174;2023-02-25T03:39:25;20.40;;;3.20;;
64669;SDS011;51080;51.690;5.174;2023-02-25T03:45:42;16.50;;;3.00;;
64669;SDS011;51080;51.690;5.174;2023-02-25T03:51:29;19.40;;;3.00;;
64669;SDS011;51080;51.690;5.174;2023-02-25T03:57:18;25.70;;;3.60;;
64669;SDS011;51080;51.690;5.174;2023-02-25T04:03:03;24.70;;;3.70;;
64669;SDS011;51080;51.690;5.174;2023-02-25T04:08:48;18.70;;;3.50;;
64669;SDS011;51080;51.690;5.174;2023-02-25T04:14:33;17.70;;;2.80;;
64669;SDS011;51080;51.690;5.174;2023-02-25T04:20:18;19.60;;;3.60;;
64669;SDS011;51080;51.690;5.174;2023-02-25T04:26:02;21.00;;;3.10;;
64669;SDS011;51080;51.690;5.174;2023-02-25T04:31:47;14.00;;;2.90;;
64669;SDS011;51080;51.690;5.174;2023-02-25T04:37:31;17.60;;;2.90;;
64669;SDS011;51080;51.690;5.174;2023-02-25T04:43:16;24.70;;;3.30;;
64669;SDS011;51080;51.690;5.174;2023-02-25T04:49:01;14.70;;;2.90;;
64669;SDS011;51080;51.690;5.174;2023-02-25T04:54:45;17.60;;;3.80;;
64669;SDS011;51080;51.690;5.174;2023-02-25T05:00:29;17.40;;;2.80;;
64669;SDS011;51080;51.690;5.174;2023-02-25T05:06:15;22.10;;;3.30;;
64669;SDS011;51080;51.690;5.174;2023-02-25T05:12:00;15.20;;;2.40;;
64669;SDS011;51080;51.690;5.174;2023-02-25T05:17:45;12.70;;;2.30;;
64669;SDS011;51080;51.690;5.174;2023-02-25T05:23:59;12.00;;;2.80;;
64669;SDS011;51080;51.690;5.174;2023-02-25T05:29:44;11.10;;;2.40;;
64669;SDS011;51080;51.690;5.174;2023-02-25T05:35:27;12.40;;;2.70;;
64669;SDS011;51080;51.690;5.174;2023-02-25T05:41:12;11.10;;;2.60;;
64669;SDS011;51080;51.690;5.174;2023-02-25T05:46:58;12.50;;;2.60;;
64669;SDS011;51080;51.690;5.174;2023-02-25T05:52:43;14.70;;;2.50;;
64669;SDS011;51080;51.690;5.174;2023-02-25T05:58:58;14.60;;;2.40;;
64669;SDS011;51080;51.690;5.174;2023-02-25T06:04:42;12.20;;;2.70;;
64669;SDS011;51080;51.690;5.174;2023-02-25T06:10:26;14.70;;;2.70;;
64669;SDS011;51080;51.690;5.174;2023-02-25T06:16:10;19.60;;;2.90;;
64669;SDS011;51080;51.690;5.174;2023-02-25T06:21:54;13.30;;;3.00;;
64669;SDS011;51080;51.690;5.174;2023-02-25T06:27:39;21.60;;;3.20;;
64669;SDS011;51080;51.690;5.174;2023-02-25T06:33:22;18.10;;;3.10;;
64669;SDS011;51080;51.690;5.174;2023-02-25T06:39:06;19.00;;;2.70;;
64669;SDS011;51080;51.690;5.174;2023-02-25T06:45:20;17.30;;;3.10;;
64669;SDS011;51080;51.690;5.174;2023-02-25T06:51:04;17.90;;;2.80;;
64669;SDS011;51080;51.690;5.174;2023-02-25T06:56:49;18.40;;;2.60;;
64669;SDS011;51080;51.690;5.174;2023-02-25T07:02:32;12.60;;;2.40;;
64669;SDS011;51080;51.690;5.174;2023-02-25T07:08:16;17.60;;;2.80;;
64669;SDS011;51080;51.690;5.174;2023-02-25T07:14:00;18.30;;;2.60;;
64669;SDS011;51080;51.690;5.174;2023-02-25T07:19:47;22.80;;;3.10;;
64669;SDS011;51080;51.690;5.174;2023-02-25T07:25:32;16.30;;;2.80;;
64669;SDS011;51080;51.690;5.174;2023-02-25T07:31:17;18.30;;;2.60;;
64669;SDS011;51080;51.690;5.174;2023-02-25T07:37:01;17.20;;;3.20;;
64669;SDS011;51080;51.690;5.174;2023-02-25T07:42:45;24.10;;;3.50;;
64669;SDS011;51080;51.690;5.174;2023-02-25T07:48:30;40.70;;;4.90;;
64669;SDS011;51080;51.690;5.174;2023-02-25T07:54:14;16.80;;;3.70;;
64669;SDS011;51080;51.690;5.174;2023-02-25T07:59:59;16.40;;;3.70;;
64669;SDS011;51080;51.690;5.174;2023-02-25T08:05:42;30.00;;;4.00;;
64669;SDS011;51080;51.690;5.174;2023-02-25T08:11:27;26.90;;;3.70;;
64669;SDS011;51080;51.690;5.174;2023-02-25T08:17:12;18.00;;;3.60;;
64669;SDS011;51080;51.690;5.174;2023-02-25T08:22:56;19.70;;;3.70;;
64669;SDS011;51080;51.690;5.174;2023-02-25T08:28:40;18.60;;;3.60;;
64669;SDS011;51080;51.690;5.174;2023-02-25T08:34:22;17.20;;;3.20;;
64669;SDS011;51080;51.690;5.174;2023-02-25T08:40:07;20.40;;;3.50;;
64669;SDS011;51080;51.690;5.174;2023-02-25T08:45:52;14.10;;;3.00;;
64669;SDS011;51080;51.690;5.174;2023-02-25T08:51:36;18.70;;;3.30;;
64669;SDS011;51080;51.690;5.174;2023-02-25T08:57:20;19.00;;;3.00;;
64669;SDS011;51080;51.690;5.174;2023-02-25T09:03:04;20.40;;;3.60;;
64669;SDS011;51080;51.690;5.174;2023-02-25T09:08:48;15.40;;;3.50;;
64669;SDS011;51080;51.690;5.174;2023-02-25T09:14:34;22.90;;;3.00;;
64669;SDS011;51080;51.690;5.174;2023-02-25T09:20:18;14.10;;;3.10;;
64669;SDS011;51080;51.690;5.174;2023-02-25T09:26:03;17.00;;;3.60;;
64669;SDS011;51080;51.690;5.174;2023-02-25T09:31:49;16.20;;;3.20;;
64669;SDS011;51080;51.690;5.174;2023-02-25T09:37:33;11.00;;;2.60;;
64669;SDS011;51080;51.690;5.174;2023-02-25T09:43:22;15.80;;;2.90;;
64669;SDS011;51080;51.690;5.174;2023-02-25T09:49:14;19.80;;;3.20;;
64669;SDS011;51080;51.690;5.174;2023-02-25T09:55:15;15.80;;;3.70;;
64669;SDS011;51080;51.690;5.174;2023-02-25T10:01:06;14.60;;;3.30;;
64669;SDS011;51080;51.690;5.174;2023-02-25T10:07:07;13.00;;;3.00;;
64669;SDS011;51080;51.690;5.174;2023-02-25T10:13:05;15.60;;;3.10;;
64669;SDS011;51080;51.690;5.174;2023-02-25T10:25:10;11.10;;;2.10;;
64669;SDS011;51080;51.690;5.174;2023-02-25T10:36:53;9.40;;;1.80;;
64669;SDS011;51080;51.690;5.174;2023-02-25T10:42:42;10.60;;;2.30;;
64669;SDS011;51080;51.690;5.174;2023-02-25T10:48:30;10.80;;;2.10;;
64669;SDS011;51080;51.690;5.174;2023-02-25T10:54:49;6.10;;;1.40;;
64669;SDS011;51080;51.690;5.174;2023-02-25T11:01:12;1.90;;;0.60;;
64669;SDS011;51080;51.690;5.174;2023-02-25T11:06:58;4.30;;;0.80;;
64669;SDS011;51080;51.690;5.174;2023-02-25T11:13:24;2.90;;;0.60;;
64669;SDS011;51080;51.690;5.174;2023-02-25T11:19:36;2.90;;;0.60;;
64669;SDS011;51080;51.690;5.174;2023-02-25T11:25:28;5.30;;;0.90;;
64669;SDS011;51080;51.690;5.174;2023-02-25T11:31:28;5.10;;;1.40;;
64669;SDS011;51080;51.690;5.174;2023-02-25T11:43:26;5.00;;;1.40;;
64669;SDS011;51080;51.690;5.174;2023-02-25T11:49:17;6.70;;;1.30;;
64669;SDS011;51080;51.690;5.174;2023-02-25T11:55:16;5.00;;;1.70;;
64669;SDS011;51080;51.690;5.174;2023-02-25T12:26:05;7.70;;;1.50;;
64669;SDS011;51080;51.690;5.174;2023-02-25T12:50:20;6.00;;;1.50;;
64669;SDS011;51080;51.690;5.174;2023-02-25T12:56:26;4.40;;;1.50;;
64669;SDS011;51080;51.690;5.174;2023-02-25T13:08:42;7.10;;;2.00;;
64669;SDS011;51080;51.690;5.174;2023-02-25T13:21:04;7.10;;;2.40;;
64669;SDS011;51080;51.690;5.174;2023-02-25T13:39:18;7.60;;;1.60;;
64669;SDS011;51080;51.690;5.174;2023-02-25T13:57:50;7.80;;;1.50;;
64669;SDS011;51080;51.690;5.174;2023-02-25T14:22:18;7.60;;;1.80;;
64669;SDS011;51080;51.690;5.174;2023-02-25T14:28:21;6.30;;;1.90;;
64669;SDS011;51080;51.690;5.174;2023-02-25T14:34:17;8.10;;;1.70;;
64669;SDS011;51080;51.690;5.174;2023-02-25T14:41:01;9.40;;;1.90;;
64669;SDS011;51080;51.690;5.174;2023-02-25T14:47:09;5.40;;;1.80;;
64669;SDS011;51080;51.690;5.174;2023-02-25T15:12:01;7.20;;;1.70;;
64669;SDS011;51080;51.690;5.174;2023-02-25T15:30:25;7.90;;;2.40;;
64669;SDS011;51080;51.690;5.174;2023-02-25T15:42:04;8.00;;;2.30;;
64669;SDS011;51080;51.690;5.174;2023-02-25T15:54:06;10.00;;;2.20;;
64669;SDS011;51080;51.690;5.174;2023-02-25T15:59:54;9.10;;;2.60;;
64669;SDS011;51080;51.690;5.174;2023-02-25T16:05:38;7.90;;;1.90;;
64669;SDS011;51080;51.690;5.174;2023-02-25T16:11:30;6.90;;;2.10;;
64669;SDS011;51080;51.690;5.174;2023-02-25T16:17:22;8.80;;;2.10;;
64669;SDS011;51080;51.690;5.174;2023-02-25T16:23:13;9.80;;;2.10;;
64669;SDS011;51080;51.690;5.174;2023-02-25T16:34:58;9.20;;;2.10;;
64669;SDS011;51080;51.690;5.174;2023-02-25T16:40:49;5.40;;;1.80;;
64669;SDS011;51080;51.690;5.174;2023-02-25T16:46:35;10.80;;;3.20;;
64669;SDS011;51080;51.690;5.174;2023-02-25T16:52:50;5.80;;;2.00;;
64669;SDS011;51080;51.690;5.174;2023-02-25T16:58:36;10.90;;;3.40;;
64669;SDS011;51080;51.690;5.174;2023-02-25T17:04:23;7.80;;;1.90;;
64669;SDS011;51080;51.690;5.174;2023-02-25T17:10:22;8.30;;;2.30;;
64669;SDS011;51080;51.690;5.174;2023-02-25T17:16:17;11.50;;;3.40;;
64669;SDS011;51080;51.690;5.174;2023-02-25T17:22:04;10.50;;;3.40;;
64669;SDS011;51080;51.690;5.174;2023-02-25T17:27:48;8.10;;;2.20;;
64669;SDS011;51080;51.690;5.174;2023-02-25T17:33:31;9.90;;;2.00;;
64669;SDS011;51080;51.690;5.174;2023-02-25T17:39:17;8.50;;;2.80;;
64669;SDS011;51080;51.690;5.174;2023-02-25T17:45:08;6.30;;;2.80;;
64669;SDS011;51080;51.690;5.174;2023-02-25T17:51:10;9.70;;;3.70;;
64669;SDS011;51080;51.690;5.174;2023-02-25T17:56:57;7.80;;;2.20;;
64669;SDS011;51080;51.690;5.174;2023-02-25T18:02:44;7.00;;;2.00;;
64669;SDS011;51080;51.690;5.174;2023-02-25T18:08:28;8.00;;;2.00;;
64669;SDS011;51080;51.690;5.174;2023-02-25T18:20:25;6.90;;;2.60;;
64669;SDS011;51080;51.690;5.174;2023-02-25T18:32:57;10.30;;;3.30;;
64669;SDS011;51080;51.690;5.174;2023-02-25T18:38:42;10.30;;;3.00;;
64669;SDS011;51080;51.690;5.174;2023-02-25T18:44:26;9.50;;;2.90;;
64669;SDS011;51080;51.690;5.174;2023-02-25T18:50:10;10.50;;;4.00;;
64669;SDS011;51080;51.690;5.174;2023-02-25T18:55:55;9.80;;;3.20;;
64669;SDS011;51080;51.690;5.174;2023-02-25T19:01:42;7.50;;;3.20;;
64669;SDS011;51080;51.690;5.174;2023-02-25T19:07:28;11.20;;;4.90;;
64669;SDS011;51080;51.690;5.174;2023-02-25T19:13:15;12.90;;;6.10;;
64669;SDS011;51080;51.690;5.174;2023-02-25T19:19:02;16.80;;;6.30;;
64669;SDS011;51080;51.690;5.174;2023-02-25T19:24:47;13.30;;;5.40;;
64669;SDS011;51080;51.690;5.174;2023-02-25T19:31:04;12.70;;;4.80;;
64669;SDS011;51080;51.690;5.174;2023-02-25T19:36:49;11.00;;;3.60;;
64669;SDS011;51080;51.690;5.174;2023-02-25T19:42:34;11.60;;;3.90;;
64669;SDS011;51080;51.690;5.174;2023-02-25T19:48:19;11.50;;;3.80;;
64669;SDS011;51080;51.690;5.174;2023-02-25T19:54:06;10.40;;;3.60;;
64669;SDS011;51080;51.690;5.174;2023-02-25T20:00:21;9.30;;;4.50;;
64669;SDS011;51080;51.690;5.174;2023-02-25T20:06:08;14.80;;;6.30;;
64669;SDS011;51080;51.690;5.174;2023-02-25T20:11:54;17.20;;;8.20;;
64669;SDS011;51080;51.690;5.174;2023-02-25T20:18:08;13.90;;;6.10;;
64669;SDS011;51080;51.690;5.174;2023-02-25T20:23:52;12.90;;;4.90;;
64669;SDS011;51080;51.690;5.174;2023-02-25T20:29:38;10.10;;;3.80;;
64669;SDS011;51080;51.690;5.174;2023-02-25T20:35:22;8.30;;;3.20;;
64669;SDS011;51080;51.690;5.174;2023-02-25T20:41:07;9.00;;;3.20;;
64669;SDS011;51080;51.690;5.174;2023-02-25T20:47:30;10.10;;;3.00;;
64669;SDS011;51080;51.690;5.174;2023-02-25T20:53:17;10.00;;;4.30;;
64669;SDS011;51080;51.690;5.174;2023-02-25T20:59:01;8.10;;;4.80;;
64669;SDS011;51080;51.690;5.174;2023-02-25T21:04:46;10.20;;;4.50;;
64669;SDS011;51080;51.690;5.174;2023-02-25T21:11:01;9.50;;;4.00;;
64669;SDS011;51080;51.690;5.174;2023-02-25T21:17:16;11.90;;;4.30;;
64669;SDS011;51080;51.690;5.174;2023-02-25T21:23:01;9.50;;;4.10;;
64669;SDS011;51080;51.690;5.174;2023-02-25T21:28:46;11.60;;;4.30;;
64669;SDS011;51080;51.690;5.174;2023-02-25T21:34:30;10.80;;;4.80;;
64669;SDS011;51080;51.690;5.174;2023-02-25T21:40:14;12.70;;;4.50;;
64669;SDS011;51080;51.690;5.174;2023-02-25T21:46:29;11.60;;;4.30;;
64669;SDS011;51080;51.690;5.174;2023-02-25T21:52:16;12.60;;;5.00;;
64669;SDS011;51080;51.690;5.174;2023-02-25T21:58:30;10.00;;;4.40;;
64669;SDS011;51080;51.690;5.174;2023-02-25T22:04:15;14.80;;;5.00;;
64669;SDS011;51080;51.690;5.174;2023-02-25T22:10:01;14.30;;;4.90;;
64669;SDS011;51080;51.690;5.174;2023-02-25T22:16:17;11.30;;;4.80;;
64669;SDS011;51080;51.690;5.174;2023-02-25T22:22:02;16.90;;;5.20;;
64669;SDS011;51080;51.690;5.174;2023-02-25T22:27:46;14.20;;;5.80;;
64669;SDS011;51080;51.690;5.174;2023-02-25T22:33:31;14.20;;;5.50;;
64669;SDS011;51080;51.690;5.174;2023-02-25T22:39:17;13.30;;;5.30;;
64669;SDS011;51080;51.690;5.174;2023-02-25T22:45:02;16.30;;;5.50;;
64669;SDS011;51080;51.690;5.174;2023-02-25T22:50:48;15.70;;;6.00;;
64669;SDS011;51080;51.690;5.174;2023-02-25T22:56:33;15.10;;;6.10;;
64669;SDS011;51080;51.690;5.174;2023-02-25T23:02:19;16.90;;;5.50;;
64669;SDS011;51080;51.690;5.174;2023-02-25T23:08:04;17.20;;;6.20;;
64669;SDS011;51080;51.690;5.174;2023-02-25T23:13:50;11.60;;;5.70;;
64669;SDS011;51080;51.690;5.174;2023-02-25T23:19:35;10.80;;;5.70;;
64669;SDS011;51080;51.690;5.174;2023-02-25T23:25:18;12.10;;;5.60;;
64669;SDS011;51080;51.690;5.174;2023-02-25T23:31:34;12.90;;;5.40;;
64669;SDS011;51080;51.690;5.174;2023-02-25T23:37:19;15.00;;;5.50;;
64669;SDS011;51080;51.690;5.174;2023-02-25T23:43:03;13.90;;;5.60;;
64669;SDS011;51080;51.690;5.174;2023-02-25T23:48:48;14.00;;;5.00;;
64669;SDS011;51080;51.690;5.174;2023-02-25T23:54:33;12.10;;;4.40;;
